Time;durP1;ratioP1;P1;durP2;ratioP2;P2;SDS_P1;SDS_P2;PMS_P1;PMS_P2;Temp;Humidity;BMP_temperature;BMP_pressure;BME280_temperature;BME280_humidity;BME280_pressure;Samples;Min_cycle;Max_cycle;Signal;HPM_P1;HPM_P2
2023/12/31 00:00:32;;;;;;;21.40;16.23;;;;;;;6.25;63.43;95248.72;5073465;28;20208;-68
2023/12/31 00:02:58;;;;;;;25.30;18.70;;;;;;;6.21;63.42;95247.31;5070196;28;20244;-67
2023/12/31 00:05:23;;;;;;;23.60;18.33;;;;;;;6.23;63.57;95251.47;5072911;28;20256;-67
2023/12/31 00:07:49;;;;;;;22.53;16.30;;;;;;;6.29;63.39;95258.00;5075244;28;20316;-68
2023/12/31 00:10:14;;;;;;;22.20;16.13;;;;;;;6.32;63.49;95249.91;5074916;28;20429;-67
2023/12/31 00:12:40;;;;;;;22.57;17.13;;;;;;;6.21;63.65;95248.16;5076587;28;20209;-67
2023/12/31 00:15:05;;;;;;;24.40;16.70;;;;;;;6.33;63.56;95252.41;5073137;28;20299;-67
2023/12/31 00:17:31;;;;;;;19.60;16.33;;;;;;;6.30;63.47;95254.44;5073531;28;20216;-67
2023/12/31 00:19:56;;;;;;;22.43;16.97;;;;;;;6.25;63.87;95248.72;5074586;28;20221;-67
2023/12/31 00:22:22;;;;;;;19.40;16.13;;;;;;;6.33;64.02;95254.19;5077349;28;20220;-66
2023/12/31 00:24:51;;;;;;;19.00;15.13;;;;;;;6.39;63.54;95251.13;5072575;28;20203;-67
2023/12/31 00:27:16;;;;;;;19.40;14.50;;;;;;;6.37;63.55;95255.63;5072678;28;20255;-67
2023/12/31 00:29:44;;;;;;;19.43;15.93;;;;;;;6.21;64.05;95257.78;5074245;28;20245;-67
2023/12/31 00:32:09;;;;;;;25.27;17.47;;;;;;;6.37;63.57;95253.00;5071893;28;20228;-67
2023/12/31 00:34:35;;;;;;;23.23;16.73;;;;;;;6.38;63.49;95265.94;5074369;28;20225;-67
2023/12/31 00:37:00;;;;;;;23.00;17.30;;;;;;;6.38;63.06;95258.09;5073826;28;20181;-67
2023/12/31 00:39:25;;;;;;;21.83;17.70;;;;;;;6.31;63.54;95256.09;5080771;28;20279;-67
2023/12/31 00:41:51;;;;;;;24.50;17.10;;;;;;;6.29;63.43;95264.03;5073881;28;20246;-67
2023/12/31 00:44:16;;;;;;;25.27;18.03;;;;;;;6.29;63.66;95261.44;5078222;28;20311;-69
2023/12/31 00:46:42;;;;;;;24.03;18.07;;;;;;;6.33;63.70;95273.28;5071007;28;20210;-67
2023/12/31 00:49:07;;;;;;;23.03;19.47;;;;;;;6.24;63.86;95260.97;5073686;28;20193;-67
2023/12/31 00:51:33;;;;;;;23.77;17.23;;;;;;;6.35;63.81;95265.34;5072538;28;20231;-67
2023/12/31 00:53:58;;;;;;;23.57;17.93;;;;;;;6.23;64.15;95261.06;5068438;28;20228;-67
2023/12/31 00:56:23;;;;;;;24.83;17.97;;;;;;;6.31;63.95;95266.56;5077517;28;20599;-67
2023/12/31 00:58:49;;;;;;;26.93;17.60;;;;;;;6.28;64.05;95261.53;5078474;28;20236;-67
2023/12/31 01:01:14;;;;;;;24.97;16.53;;;;;;;6.34;63.83;95264.53;5073329;28;20275;-67
2023/12/31 01:03:40;;;;;;;20.73;15.97;;;;;;;6.30;64.04;95257.03;5074477;28;20180;-67
2023/12/31 01:06:07;;;;;;;20.43;16.57;;;;;;;6.23;64.33;95259.31;5068996;28;20223;-67
2023/12/31 01:08:32;;;;;;;22.07;17.03;;;;;;;6.29;64.10;95258.81;5075870;28;20227;-67
2023/12/31 01:10:58;;;;;;;24.53;17.77;;;;;;;6.27;64.43;95254.66;5074332;28;20215;-67
2023/12/31 01:13:23;;;;;;;21.43;15.97;;;;;;;6.29;64.20;95250.16;5075253;28;20316;-67
2023/12/31 01:15:49;;;;;;;22.93;16.87;;;;;;;6.22;64.40;95247.19;5070797;28;20188;-67
2023/12/31 01:18:14;;;;;;;21.90;16.57;;;;;;;6.23;64.44;95253.22;5077263;28;20338;-66
2023/12/31 01:20:40;;;;;;;23.67;16.93;;;;;;;6.36;64.10;95240.88;5071716;28;20216;-68
2023/12/31 01:23:05;;;;;;;21.87;16.03;;;;;;;6.21;64.36;95245.53;5076350;28;20216;-67
2023/12/31 01:25:30;;;;;;;20.77;17.13;;;;;;;5.95;65.35;95237.09;5085060;28;20228;-68
2023/12/31 01:27:57;;;;;;;21.40;16.13;;;;;;;6.13;65.02;95250.53;5064415;28;20189;-67
2023/12/31 01:30:23;;;;;;;27.43;17.60;;;;;;;6.01;64.93;95247.06;5081914;28;20242;-68
2023/12/31 01:32:50;;;;;;;24.83;18.07;;;;;;;6.07;64.75;95232.72;5072373;28;20231;-68
2023/12/31 01:35:16;;;;;;;21.37;17.77;;;;;;;6.18;64.80;95240.56;5062748;28;20280;-68
2023/12/31 01:37:42;;;;;;;24.17;18.93;;;;;;;6.08;64.90;95245.66;5072921;28;20224;-67
2023/12/31 01:40:08;;;;;;;26.03;18.33;;;;;;;6.22;64.75;95248.97;5073151;28;20197;-67
2023/12/31 01:42:33;;;;;;;25.20;19.53;;;;;;;6.16;64.60;95242.44;5070557;28;20265;-67
2023/12/31 01:44:59;;;;;;;27.17;18.93;;;;;;;6.14;64.87;95239.13;5076844;28;20311;-67
2023/12/31 01:47:25;;;;;;;22.53;17.73;;;;;;;6.17;64.73;95246.72;5074891;28;20237;-67
2023/12/31 01:49:51;;;;;;;25.17;18.80;;;;;;;6.11;64.60;95244.59;5075873;28;20236;-67
2023/12/31 01:52:18;;;;;;;20.57;17.50;;;;;;;6.10;64.97;95248.97;5061620;28;20213;-67
2023/12/31 01:54:43;;;;;;;19.20;15.93;;;;;;;6.13;64.54;95238.28;5075666;28;20181;-67
2023/12/31 01:57:11;;;;;;;23.23;17.33;;;;;;;6.14;64.67;95246.94;5073318;28;20233;-67
2023/12/31 01:59:38;;;;;;;25.47;19.10;;;;;;;6.12;64.63;95249.69;5082994;28;20228;-68
2023/12/31 02:02:03;;;;;;;24.27;17.00;;;;;;;6.03;65.05;95250.41;5080634;28;20280;-68
2023/12/31 02:04:33;;;;;;;23.53;17.07;;;;;;;6.08;64.89;95235.22;5079947;28;20324;-66
2023/12/31 02:07:00;;;;;;;26.13;17.93;;;;;;;5.99;65.00;95237.69;5077472;28;20322;-67
2023/12/31 02:09:26;;;;;;;24.63;17.77;;;;;;;6.08;64.68;95235.22;5071787;28;20212;-67
2023/12/31 02:11:52;;;;;;;23.37;17.87;;;;;;;6.06;64.79;95234.50;5075512;28;20280;-67
2023/12/31 02:14:17;;;;;;;22.27;17.40;;;;;;;6.01;65.08;95236.63;5076429;28;20304;-66
2023/12/31 02:16:43;;;;;;;21.23;18.07;;;;;;;6.01;64.86;95225.34;5070626;28;20229;-67
2023/12/31 02:19:08;;;;;;;20.83;17.50;;;;;;;5.99;65.12;95224.63;5075214;28;20186;-67
2023/12/31 02:21:34;;;;;;;23.07;16.37;;;;;;;6.09;64.80;95228.19;5077350;28;20268;-67
2023/12/31 02:24:00;;;;;;;22.73;16.97;;;;;;;6.09;65.00;95215.97;5075022;28;20224;-68
2023/12/31 02:26:26;;;;;;;21.57;15.90;;;;;;;6.04;64.79;95212.91;5073070;28;20278;-68
2023/12/31 02:28:51;;;;;;;17.17;12.73;;;;;;;6.04;64.74;95217.28;5080333;28;20221;-68
2023/12/31 02:31:18;;;;;;;14.97;12.70;;;;;;;5.96;65.13;95205.69;5074319;28;20273;-67
2023/12/31 02:33:44;;;;;;;14.57;11.80;;;;;;;6.03;64.85;95206.00;5075998;28;20217;-67
2023/12/31 02:36:09;;;;;;;17.80;13.17;;;;;;;6.06;64.82;95208.38;5077900;28;20224;-67
2023/12/31 02:38:35;;;;;;;22.27;15.20;;;;;;;6.07;65.12;95204.84;5073967;28;20224;-67
2023/12/31 02:41:00;;;;;;;21.63;16.90;;;;;;;6.09;64.94;95195.09;5075867;28;20217;-67
2023/12/31 02:43:26;;;;;;;23.20;15.63;;;;;;;6.02;65.10;95193.09;5076206;28;20221;-67
2023/12/31 02:45:51;;;;;;;22.33;16.97;;;;;;;6.02;64.99;95206.16;5086890;28;20188;-68
2023/12/31 02:48:17;;;;;;;21.80;16.23;;;;;;;5.79;65.34;95210.50;5071743;28;20224;-67
2023/12/31 02:50:42;;;;;;;20.80;16.17;;;;;;;5.88;65.21;95209.78;5072760;28;20244;-67
2023/12/31 02:53:08;;;;;;;21.10;15.93;;;;;;;5.88;65.29;95202.81;5075798;28;20244;-67
2023/12/31 02:55:33;;;;;;;25.47;18.70;;;;;;;5.83;65.20;95211.94;5076091;28;20223;-67
2023/12/31 02:57:58;;;;;;;23.70;18.37;;;;;;;5.95;64.91;95208.41;5069987;28;20208;-67
2023/12/31 03:00:24;;;;;;;21.10;17.03;;;;;;;5.82;65.07;95215.47;5064473;28;20221;-67
2023/12/31 03:02:49;;;;;;;23.00;17.67;;;;;;;5.73;65.14;95207.41;5078560;28;20219;-66
2023/12/31 03:05:15;;;;;;;22.10;17.83;;;;;;;5.69;65.61;95207.75;5075409;28;20220;-68
2023/12/31 03:07:40;;;;;;;21.37;17.67;;;;;;;5.68;65.28;95211.31;5069737;28;20223;-67
2023/12/31 03:10:06;;;;;;;22.53;18.23;;;;;;;5.47;65.98;95213.78;5069968;28;20215;-67
2023/12/31 03:12:32;;;;;;;22.80;18.20;;;;;;;5.49;65.90;95206.66;5070450;28;20236;-66
2023/12/31 03:14:57;;;;;;;22.03;16.00;;;;;;;5.56;65.79;95218.31;5070899;28;20236;-66
2023/12/31 03:17:23;;;;;;;23.60;19.23;;;;;;;5.57;65.81;95214.75;5072778;28;20224;-69
2023/12/31 03:19:49;;;;;;;24.03;18.97;;;;;;;5.54;65.72;95212.38;5078893;28;20312;-68
2023/12/31 03:22:15;;;;;;;22.90;19.10;;;;;;;5.52;65.92;95214.25;5073760;28;20188;-67
2023/12/31 03:24:44;;;;;;;20.83;17.10;;;;;;;5.52;65.87;95203.81;5075863;28;20206;-67
2023/12/31 03:27:11;;;;;;;21.07;17.17;;;;;;;5.46;66.13;95209.50;5077272;28;20216;-67
2023/12/31 03:29:37;;;;;;;21.87;18.27;;;;;;;5.50;65.67;95208.31;5070270;28;20271;-67
2023/12/31 03:32:02;;;;;;;22.67;17.93;;;;;;;5.49;65.56;95204.88;5081803;28;20220;-66
2023/12/31 03:34:28;;;;;;;24.80;16.97;;;;;;;5.51;65.46;95204.78;5072416;28;20220;-68
2023/12/31 03:36:53;;;;;;;22.43;16.30;;;;;;;5.40;65.96;95203.00;5066714;28;20197;-67
2023/12/31 03:39:19;;;;;;;18.27;15.77;;;;;;;5.41;65.40;95204.63;5072275;28;20220;-67
2023/12/31 03:41:44;;;;;;;19.80;15.97;;;;;;;5.36;65.62;95200.72;5077953;28;20225;-67
2023/12/31 03:44:10;;;;;;;20.53;15.80;;;;;;;5.26;66.08;95196.19;5064774;28;20270;-67
2023/12/31 03:46:35;;;;;;;19.60;15.57;;;;;;;5.23;65.77;95204.22;5075286;28;20220;-67
2023/12/31 03:49:00;;;;;;;17.03;14.67;;;;;;;5.19;65.67;95207.22;5079598;28;20212;-67
2023/12/31 03:51:26;;;;;;;23.97;17.87;;;;;;;5.26;65.63;95204.00;5073157;28;20362;-67
2023/12/31 03:53:51;;;;;;;23.03;18.20;;;;;;;5.04;66.72;95206.56;5073302;28;20232;-67
2023/12/31 03:56:17;;;;;;;20.17;17.83;;;;;;;4.90;67.09;95214.56;5074201;28;20311;-67
2023/12/31 03:58:42;;;;;;;22.00;18.20;;;;;;;5.02;66.86;95221.47;5067925;28;20216;-67
2023/12/31 04:01:08;;;;;;;21.33;16.63;;;;;;;5.04;66.06;95216.97;5078787;28;20189;-68
2023/12/31 04:03:34;;;;;;;18.07;15.77;;;;;;;4.98;66.30;95210.44;5074936;28;20257;-68
2023/12/31 04:05:59;;;;;;;20.60;15.60;;;;;;;5.03;66.20;95215.34;5072012;28;20224;-68
2023/12/31 04:08:25;;;;;;;18.57;16.53;;;;;;;4.95;66.12;95213.28;5070927;28;20236;-67
2023/12/31 04:10:50;;;;;;;14.67;13.17;;;;;;;4.93;66.20;95216.94;5075699;28;20281;-68
2023/12/31 04:13:17;;;;;;;18.47;15.70;;;;;;;4.96;65.85;95211.50;5074546;28;20220;-68
2023/12/31 04:15:42;;;;;;;24.13;18.43;;;;;;;5.03;65.59;95215.34;5079049;28;20270;-68
2023/12/31 04:18:08;;;;;;;26.43;18.30;;;;;;;4.96;66.07;95221.94;5070022;28;20281;-68
2023/12/31 04:20:33;;;;;;;22.10;16.20;;;;;;;4.95;66.18;95223.72;5077956;28;20223;-68
2023/12/31 04:22:59;;;;;;;24.87;19.83;;;;;;;4.76;66.76;95226.81;5076982;28;20225;-68
2023/12/31 04:25:24;;;;;;;25.10;19.20;;;;;;;4.82;66.65;95228.16;5074926;28;20217;-68
2023/12/31 04:27:50;;;;;;;25.70;19.47;;;;;;;4.88;66.43;95237.28;5073858;28;20184;-67
2023/12/31 04:30:15;;;;;;;23.03;18.20;;;;;;;4.61;66.83;95235.75;5066419;28;20223;-68
2023/12/31 04:32:41;;;;;;;24.63;18.50;;;;;;;4.75;66.80;95232.13;5065854;28;20225;-68
2023/12/31 04:35:06;;;;;;;25.23;17.90;;;;;;;4.61;67.33;95222.72;5074347;28;20312;-68
2023/12/31 04:37:32;;;;;;;22.13;18.23;;;;;;;4.58;67.38;95225.53;5084265;28;20219;-68
2023/12/31 04:39:58;;;;;;;25.37;18.43;;;;;;;4.56;67.38;95232.63;5065819;28;20247;-67
2023/12/31 04:42:23;;;;;;;23.03;17.33;;;;;;;4.75;66.69;95230.34;5070163;28;20209;-67
2023/12/31 04:44:49;;;;;;;23.10;16.53;;;;;;;4.74;66.66;95238.28;5069399;28;20221;-67
2023/12/31 04:47:14;;;;;;;21.87;17.37;;;;;;;4.64;66.15;95240.72;5073763;28;20224;-68
2023/12/31 04:49:40;;;;;;;22.43;17.53;;;;;;;4.30;67.19;95239.69;5074142;28;20220;-67
2023/12/31 04:52:06;;;;;;;20.77;17.50;;;;;;;4.44;66.86;95239.56;5072908;28;20189;-67
2023/12/31 04:54:31;;;;;;;21.40;16.57;;;;;;;4.34;66.86;95233.34;5077387;28;20184;-67
2023/12/31 04:56:57;;;;;;;22.23;17.40;;;;;;;4.41;66.58;95232.78;5070960;28;20465;-67
2023/12/31 04:59:22;;;;;;;21.40;17.03;;;;;;;4.43;66.70;95235.25;5072221;28;20250;-69
2023/12/31 05:01:50;;;;;;;21.70;17.70;;;;;;;4.41;66.62;95239.75;5070386;28;20281;-68
2023/12/31 05:04:16;;;;;;;21.77;16.97;;;;;;;4.59;65.85;95242.81;5069153;28;20185;-70
2023/12/31 05:06:41;;;;;;;23.93;17.67;;;;;;;4.32;66.67;95251.66;5071697;28;20366;-68
2023/12/31 05:09:11;;;;;;;22.40;17.10;;;;;;;4.41;66.31;95248.41;5071211;28;20236;-68
2023/12/31 05:11:37;;;;;;;25.90;18.53;;;;;;;4.28;66.78;95254.59;5069580;28;20298;-66
2023/12/31 05:14:02;;;;;;;30.30;23.87;;;;;;;4.11;67.57;95251.38;5071065;28;20353;-67
2023/12/31 05:16:31;;;;;;;29.63;24.17;;;;;;;4.23;67.25;95257.50;5081887;28;20215;-67
2023/12/31 05:18:58;;;;;;;31.17;27.77;;;;;;;4.43;66.41;95251.72;5069788;28;20189;-67
2023/12/31 05:21:24;;;;;;;35.17;29.27;;;;;;;4.27;67.11;95250.31;5071504;28;20312;-67
2023/12/31 05:23:50;;;;;;;36.73;32.80;;;;;;;4.27;66.98;95251.13;5078080;28;20221;-67
2023/12/31 05:26:15;;;;;;;43.17;37.37;;;;;;;4.35;66.69;95253.19;5069870;28;20230;-67
2023/12/31 05:28:41;;;;;;;45.70;35.20;;;;;;;4.34;66.83;95252.38;5074961;28;20232;-67
2023/12/31 05:31:06;;;;;;;49.40;39.27;;;;;;;4.41;66.92;95252.75;5071377;28;20226;-67
2023/12/31 05:33:32;;;;;;;46.53;38.80;;;;;;;4.38;66.75;95247.78;5074209;28;20227;-67
2023/12/31 05:35:57;;;;;;;36.30;29.37;;;;;;;4.34;67.02;95252.38;5073916;28;20217;-68
2023/12/31 05:38:23;;;;;;;36.33;31.00;;;;;;;4.19;67.49;95248.25;5073958;28;20227;-67
2023/12/31 05:40:48;;;;;;;33.47;29.87;;;;;;;4.22;67.36;95247.19;5067033;28;20223;-68
2023/12/31 05:43:13;;;;;;;32.20;27.47;;;;;;;4.29;66.73;95245.84;5069075;28;20184;-68
2023/12/31 05:45:39;;;;;;;33.03;27.73;;;;;;;4.24;66.67;95250.53;5078216;28;20251;-68
2023/12/31 05:48:05;;;;;;;32.27;25.53;;;;;;;4.16;66.66;95248.47;5068420;28;20240;-67
2023/12/31 05:50:30;;;;;;;31.10;25.80;;;;;;;4.22;66.34;95257.59;5072742;28;20248;-67
2023/12/31 05:52:56;;;;;;;28.53;23.93;;;;;;;4.23;66.23;95256.69;5074679;28;20229;-67
2023/12/31 05:55:21;;;;;;;28.00;24.47;;;;;;;4.27;66.19;95261.56;5071296;28;20220;-67
2023/12/31 05:57:46;;;;;;;28.23;24.10;;;;;;;4.20;66.25;95255.13;5071370;28;20215;-68
2023/12/31 06:00:12;;;;;;;28.20;24.37;;;;;;;4.15;66.35;95252.84;5072829;28;20220;-68
2023/12/31 06:02:38;;;;;;;28.17;22.50;;;;;;;4.08;66.44;95255.97;5075480;28;20212;-68
2023/12/31 06:05:04;;;;;;;31.30;26.33;;;;;;;4.09;66.83;95257.63;5071892;28;20221;-68
2023/12/31 06:07:30;;;;;;;29.67;26.43;;;;;;;4.06;66.38;95263.03;5068718;28;20222;-67
2023/12/31 06:09:55;;;;;;;30.70;27.20;;;;;;;3.96;66.73;95261.09;5070083;28;20189;-68
2023/12/31 06:12:21;;;;;;;29.17;24.60;;;;;;;4.13;66.21;95257.31;5072410;28;20229;-68
2023/12/31 06:14:46;;;;;;;32.33;26.47;;;;;;;4.07;66.28;95260.34;5071440;28;20231;-67
2023/12/31 06:17:11;;;;;;;27.33;23.90;;;;;;;4.02;66.45;95261.59;5073476;28;20692;-69
2023/12/31 06:19:37;;;;;;;27.10;23.47;;;;;;;4.11;66.67;95263.56;5075505;28;20208;-68
2023/12/31 06:22:02;;;;;;;26.93;24.03;;;;;;;4.12;66.48;95263.47;5073617;28;20192;-67
2023/12/31 06:24:28;;;;;;;28.93;25.33;;;;;;;4.08;66.44;95261.19;5072229;28;20185;-67
2023/12/31 06:26:53;;;;;;;36.87;26.60;;;;;;;4.20;66.50;95273.34;5071755;28;20216;-68
2023/12/31 06:29:19;;;;;;;35.67;30.30;;;;;;;4.07;66.90;95272.53;5080428;28;20223;-67
2023/12/31 06:31:44;;;;;;;33.83;29.83;;;;;;;4.06;66.94;95263.03;5075552;28;20225;-67
2023/12/31 06:34:10;;;;;;;38.17;30.87;;;;;;;4.23;66.36;95270.53;5068919;28;20244;-66
2023/12/31 06:36:35;;;;;;;32.47;28.83;;;;;;;4.15;66.72;95272.84;5073614;28;20177;-67
2023/12/31 06:39:01;;;;;;;37.33;29.13;;;;;;;4.13;66.79;95270.31;5071293;28;20228;-67
2023/12/31 06:41:26;;;;;;;33.70;29.93;;;;;;;4.15;67.09;95270.22;5067155;28;20224;-67
2023/12/31 06:43:52;;;;;;;35.83;31.37;;;;;;;4.33;66.48;95262.88;5078679;28;20228;-68
2023/12/31 06:46:17;;;;;;;33.73;27.43;;;;;;;4.37;66.62;95272.16;5073848;28;20196;-68
2023/12/31 06:48:43;;;;;;;33.53;26.60;;;;;;;4.39;66.59;95275.50;5071437;28;20196;-67
2023/12/31 06:51:08;;;;;;;34.67;26.53;;;;;;;4.51;66.48;95285.03;5077964;28;20235;-68
2023/12/31 06:53:34;;;;;;;34.73;27.60;;;;;;;4.38;66.57;95281.63;5075094;28;20221;-67
2023/12/31 06:56:06;;;;;;;33.80;24.40;;;;;;;4.55;66.61;95276.06;5074293;28;20216;-67
2023/12/31 06:58:34;;;;;;;31.67;24.10;;;;;;;4.36;67.10;95289.56;5071272;28;20217;-67
2023/12/31 07:00:59;;;;;;;30.30;24.10;;;;;;;4.36;67.06;95281.75;5071028;28;20200;-68
2023/12/31 07:03:25;;;;;;;31.70;25.43;;;;;;;4.30;67.04;95281.31;5083418;28;20181;-67
2023/12/31 07:05:50;;;;;;;34.30;25.30;;;;;;;4.56;66.63;95289.91;5075222;28;20225;-68
2023/12/31 07:08:16;;;;;;;32.40;22.67;;;;;;;4.38;67.00;95277.28;5075366;28;20216;-68
2023/12/31 07:10:42;;;;;;;34.80;24.20;;;;;;;4.54;66.63;95290.00;5073597;28;20220;-68
2023/12/31 07:13:08;;;;;;;28.83;22.73;;;;;;;4.62;66.13;95289.47;5070947;28;20257;-68
2023/12/31 07:15:35;;;;;;;30.23;23.17;;;;;;;4.70;66.13;95294.16;5078493;28;20192;-67
2023/12/31 07:18:00;;;;;;;30.23;23.63;;;;;;;4.83;66.04;95285.34;5075049;28;20216;-67
2023/12/31 07:20:26;;;;;;;31.93;23.47;;;;;;;4.77;65.91;95285.78;5070428;28;20209;-68
2023/12/31 07:22:53;;;;;;;29.73;23.20;;;;;;;4.96;66.12;95289.69;5077154;28;20213;-68
2023/12/31 07:25:25;;;;;;;30.77;24.20;;;;;;;4.98;66.12;95280.81;5077723;28;20180;-67
2023/12/31 07:27:51;;;;;;;36.40;24.83;;;;;;;5.09;65.97;95280.03;5079332;28;20205;-68
2023/12/31 07:30:16;;;;;;;35.90;27.73;;;;;;;5.09;66.16;95278.25;5081137;28;20355;-67
2023/12/31 07:32:42;;;;;;;35.40;28.37;;;;;;;5.15;66.14;95281.34;5073369;28;20217;-67
2023/12/31 07:35:08;;;;;;;37.07;28.33;;;;;;;5.16;66.22;95276.03;5081814;28;20209;-67
2023/12/31 07:37:33;;;;;;;38.63;28.87;;;;;;;5.35;65.81;95287.72;5078603;28;20232;-68
2023/12/31 07:39:59;;;;;;;32.20;25.07;;;;;;;5.49;65.33;95279.69;5075044;28;20195;-69
2023/12/31 07:42:24;;;;;;;27.30;23.20;;;;;;;5.61;65.31;95275.31;5076986;28;20216;-67
2023/12/31 07:44:50;;;;;;;23.30;20.00;;;;;;;5.68;65.12;95277.38;5073341;28;20209;-67
2023/12/31 07:47:15;;;;;;;19.70;16.57;;;;;;;5.82;64.95;95278.94;5082256;28;20216;-68
2023/12/31 07:49:41;;;;;;;18.13;14.60;;;;;;;5.94;64.69;95292.88;5082339;28;20212;-67
2023/12/31 07:52:07;;;;;;;18.43;15.37;;;;;;;5.99;64.59;95285.53;5078109;28;20183;-68
2023/12/31 07:54:32;;;;;;;17.50;14.03;;;;;;;5.97;65.00;95284.81;5073445;28;20192;-69
2023/12/31 07:56:59;;;;;;;19.30;16.57;;;;;;;6.13;64.55;95287.91;5075998;28;20221;-69
2023/12/31 07:59:24;;;;;;;18.67;15.37;;;;;;;6.23;64.31;95295.00;5074621;28;20225;-68
2023/12/31 08:01:49;;;;;;;18.03;15.23;;;;;;;6.34;64.49;95298.47;5074820;28;20221;-67
2023/12/31 08:04:15;;;;;;;20.07;15.60;;;;;;;6.42;64.12;95289.22;5080638;28;20206;-68
2023/12/31 08:06:40;;;;;;;18.53;15.53;;;;;;;6.41;64.05;95288.38;5070959;28;20185;-68
2023/12/31 08:09:06;;;;;;;15.17;13.67;;;;;;;6.51;63.77;95294.53;5068882;28;20219;-68
2023/12/31 08:11:31;;;;;;;18.43;14.87;;;;;;;6.56;63.80;95292.41;5074574;28;20355;-68
2023/12/31 08:13:57;;;;;;;18.10;15.97;;;;;;;6.53;63.84;95294.44;5077134;28;20229;-68
2023/12/31 08:16:22;;;;;;;17.63;15.23;;;;;;;6.60;63.74;95299.06;5072570;28;20290;-68
2023/12/31 08:18:48;;;;;;;18.77;15.67;;;;;;;6.71;63.30;95290.38;5075593;28;20181;-68
2023/12/31 08:21:13;;;;;;;17.47;15.47;;;;;;;6.92;62.80;95297.44;5079327;28;20295;-67
2023/12/31 08:23:38;;;;;;;18.40;16.50;;;;;;;6.88;62.87;95294.25;5072930;28;20266;-68
2023/12/31 08:26:04;;;;;;;19.63;16.70;;;;;;;6.91;62.75;95286.16;5076496;28;20345;-68
2023/12/31 08:28:30;;;;;;;18.27;16.37;;;;;;;6.99;62.64;95293.38;5075786;28;20208;-67
2023/12/31 08:30:55;;;;;;;20.33;17.13;;;;;;;7.04;62.17;95292.06;5071193;28;20212;-68
2023/12/31 08:33:21;;;;;;;19.23;16.23;;;;;;;7.17;62.03;95293.69;5071507;28;20224;-69
2023/12/31 08:35:47;;;;;;;16.93;15.17;;;;;;;7.15;61.95;95282.53;5076517;28;20209;-69
2023/12/31 08:38:12;;;;;;;18.60;16.13;;;;;;;7.27;61.77;95290.22;5059917;28;20216;-68
2023/12/31 08:40:37;;;;;;;23.13;19.17;;;;;;;7.29;61.83;95287.47;5078540;28;20265;-68
2023/12/31 08:43:03;;;;;;;21.27;18.60;;;;;;;7.23;61.87;95285.34;5072059;28;20205;-68
2023/12/31 08:45:29;;;;;;;18.93;16.70;;;;;;;7.37;61.75;95297.31;5071512;28;20181;-68
2023/12/31 08:47:55;;;;;;;19.77;17.67;;;;;;;7.46;61.26;95299.19;5071896;28;20221;-68
2023/12/31 08:50:20;;;;;;;17.47;15.63;;;;;;;7.53;61.41;95294.25;5071210;28;20228;-68
2023/12/31 08:52:47;;;;;;;15.40;13.77;;;;;;;7.41;61.28;95293.50;5074660;28;20221;-68
2023/12/31 08:55:13;;;;;;;19.20;17.03;;;;;;;7.40;61.29;95302.28;5067805;28;20181;-68
2023/12/31 08:57:44;;;;;;;22.50;18.93;;;;;;;7.26;62.32;95298.16;5080173;28;20266;-68
2023/12/31 09:00:10;;;;;;;22.37;18.97;;;;;;;7.41;62.09;95290.88;5081539;28;20220;-68
2023/12/31 09:02:36;;;;;;;21.83;19.43;;;;;;;7.41;62.01;95289.09;5068830;28;20221;-68
2023/12/31 09:05:02;;;;;;;21.77;19.47;;;;;;;7.51;61.64;95281.28;5074328;28;20223;-69
2023/12/31 09:07:27;;;;;;;22.50;20.10;;;;;;;7.60;61.10;95275.31;5074463;28;20220;-67
2023/12/31 09:09:53;;;;;;;21.10;18.60;;;;;;;7.75;60.65;95278.44;5074475;28;20185;-68
2023/12/31 09:12:19;;;;;;;20.40;18.30;;;;;;;7.89;60.58;95280.75;5090177;28;20224;-68
2023/12/31 09:14:44;;;;;;;22.30;19.60;;;;;;;7.94;60.30;95282.97;5071485;28;20218;-68
2023/12/31 09:17:11;;;;;;;22.33;18.47;;;;;;;7.96;60.11;95275.78;5069129;28;20228;-68
2023/12/31 09:19:38;;;;;;;22.77;19.53;;;;;;;7.98;59.87;95276.50;5070641;28;20209;-69
2023/12/31 09:22:03;;;;;;;22.83;19.53;;;;;;;8.06;60.15;95281.09;5064909;28;20182;-68
2023/12/31 09:24:30;;;;;;;22.43;18.00;;;;;;;8.10;60.07;95266.78;5068328;28;20272;-68
2023/12/31 09:26:56;;;;;;;21.47;19.13;;;;;;;7.99;60.31;95266.84;5074619;28;20235;-68
2023/12/31 09:29:21;;;;;;;21.50;18.93;;;;;;;8.15;60.00;95264.59;5067938;28;20225;-68
2023/12/31 09:31:47;;;;;;;21.87;19.47;;;;;;;8.35;59.24;95252.41;5076919;28;20277;-68
2023/12/31 09:34:12;;;;;;;20.83;18.67;;;;;;;8.36;59.42;95256.69;5074027;28;20236;-68
2023/12/31 09:36:37;;;;;;;20.77;18.13;;;;;;;8.46;58.92;95254.97;5077483;28;20192;-68
2023/12/31 09:39:03;;;;;;;20.87;18.67;;;;;;;8.51;58.97;95252.78;5075568;28;20220;-69
2023/12/31 09:41:31;;;;;;;20.90;18.70;;;;;;;8.56;58.93;95255.84;5074631;28;20229;-68
2023/12/31 09:43:56;;;;;;;26.10;18.73;;;;;;;8.63;58.91;95245.63;5076262;28;20224;-67
2023/12/31 09:46:22;;;;;;;20.90;18.67;;;;;;;8.94;57.45;95256.88;5077678;28;20215;-68
2023/12/31 09:48:53;;;;;;;21.00;18.67;;;;;;;8.66;58.02;95242.75;5074831;28;20238;-67
2023/12/31 09:51:19;;;;;;;19.70;17.60;;;;;;;8.54;58.62;95238.59;5070508;28;20282;-67
2023/12/31 09:53:51;;;;;;;22.27;17.83;;;;;;;8.59;58.45;95234.59;5073884;28;20220;-68
2023/12/31 09:56:17;;;;;;;19.90;17.90;;;;;;;8.42;59.19;95229.16;5071929;28;20221;-67
2023/12/31 09:58:43;;;;;;;19.43;17.43;;;;;;;8.65;58.41;95219.28;5070984;28;20271;-68
2023/12/31 10:01:08;;;;;;;20.63;16.60;;;;;;;8.76;58.00;95221.78;5076951;28;20196;-69
2023/12/31 10:03:36;;;;;;;20.53;17.23;;;;;;;8.79;58.04;95211.03;5076586;28;20243;-68
2023/12/31 10:06:05;;;;;;;21.45;17.75;;;;;;;8.84;58.00;95208.81;5076908;28;20225;-68
2023/12/31 10:08:32;;;;;;;19.30;16.63;;;;;;;8.96;57.80;95201.69;5064798;28;20280;-68
2023/12/31 10:10:59;;;;;;;17.60;15.80;;;;;;;9.12;57.65;95209.81;5076608;28;20223;-68
2023/12/31 10:13:26;;;;;;;17.13;15.03;;;;;;;9.20;56.59;95209.13;5083894;28;20228;-68
2023/12/31 10:15:51;;;;;;;16.70;14.00;;;;;;;9.40;56.42;95200.25;5075179;28;20193;-69
2023/12/31 10:18:17;;;;;;;14.90;13.40;;;;;;;9.61;55.64;95197.47;5072044;28;20223;-69
2023/12/31 10:20:42;;;;;;;20.03;16.60;;;;;;;9.62;55.34;95198.28;5077001;28;20262;-68
2023/12/31 10:23:08;;;;;;;16.43;14.37;;;;;;;9.57;55.71;95192.63;5069583;28;20220;-67
2023/12/31 10:25:33;;;;;;;16.23;14.53;;;;;;;9.67;55.60;95185.56;5075169;28;20220;-69
2023/12/31 10:27:59;;;;;;;18.15;14.82;;;;;;;9.79;55.36;95187.06;5075283;28;20303;-69
2023/12/31 10:30:24;;;;;;;18.38;14.20;;;;;;;10.22;54.20;95184.84;5073663;28;20228;-69
2023/12/31 10:32:50;;;;;;;13.15;11.70;;;;;;;10.31;53.71;95182.19;5077909;28;20235;-68
2023/12/31 10:35:22;;;;;;;14.70;12.13;;;;;;;10.53;52.48;95173.09;5073243;28;20243;-67
2023/12/31 10:38:02;;;;;;;13.15;11.85;;;;;;;10.54;52.37;95172.09;5079241;28;20303;-67
2023/12/31 10:40:27;;;;;;;15.25;13.63;;;;;;;10.60;52.84;95168.88;5060627;28;20243;-68
2023/12/31 10:42:55;;;;;;;14.93;13.43;;;;;;;10.50;53.09;95173.38;5082562;28;20678;-67
2023/12/31 10:45:22;;;;;;;13.38;10.73;;;;;;;10.56;52.54;95162.28;5072174;28;20240;-67
2023/12/31 10:47:53;;;;;;;14.02;12.35;;;;;;;10.70;52.23;95166.19;5073268;28;20216;-68
2023/12/31 10:50:26;;;;;;;16.95;15.25;;;;;;;10.81;52.50;95157.25;5081698;28;20262;-68
2023/12/31 10:52:53;;;;;;;15.65;14.02;;;;;;;11.13;51.38;95148.00;5063675;28;20227;-67
2023/12/31 10:55:20;;;;;;;16.05;14.32;;;;;;;11.33;50.72;95151.28;5073581;28;20194;-68
2023/12/31 10:57:46;;;;;;;15.30;13.70;;;;;;;11.15;51.19;95146.88;5067111;28;20236;-69
2023/12/31 11:00:13;;;;;;;15.65;13.82;;;;;;;11.31;50.82;95140.94;5072617;28;20232;-68
2023/12/31 11:02:40;;;;;;;15.48;13.88;;;;;;;11.36;50.42;95143.94;5077735;28;20218;-68
2023/12/31 11:05:07;;;;;;;16.55;13.73;;;;;;;11.25;50.85;95128.34;5075460;28;20217;-69
2023/12/31 11:07:34;;;;;;;19.23;13.73;;;;;;;11.31;50.85;95129.56;5073299;28;20217;-68
2023/12/31 11:10:00;;;;;;;13.52;12.13;;;;;;;11.15;51.09;95119.75;5077175;28;20194;-69
2023/12/31 11:12:26;;;;;;;13.63;11.68;;;;;;;11.14;51.15;95118.91;5076350;28;20229;-73
2023/12/31 11:15:05;;;;;;;14.43;12.77;;;;;;;11.16;51.37;95113.50;5075759;28;20250;-69
2023/12/31 11:18:05;;;;;;;14.60;12.63;;;;;;;11.11;51.13;95107.84;5078745;28;20213;-69